sensor_id;sensor_type;location;lat;lon;timestamp;temperature;humidity
51615;DHT22;37695;52.960;6.188;2022-11-15T00:00:07;7.20;99.90
51615;DHT22;37695;52.960;6.188;2022-11-15T00:02:33;7.20;99.90
51615;DHT22;37695;52.960;6.188;2022-11-15T00:04:58;7.30;99.90
51615;DHT22;37695;52.960;6.188;2022-11-15T00:07:24;7.30;99.90
51615;DHT22;37695;52.960;6.188;2022-11-15T00:09:50;7.30;99.90
51615;DHT22;37695;52.960;6.188;2022-11-15T00:12:15;7.30;99.90
51615;DHT22;37695;52.960;6.188;2022-11-15T00:14:41;7.40;99.90
51615;DHT22;37695;52.960;6.188;2022-11-15T00:17:06;7.40;99.90
51615;DHT22;37695;52.960;6.188;2022-11-15T00:19:32;7.50;99.90
51615;DHT22;37695;52.960;6.188;2022-11-15T00:21:58;7.50;99.90
51615;DHT22;37695;52.960;6.188;2022-11-15T00:24:24;7.60;99.90
51615;DHT22;37695;52.960;6.188;2022-11-15T00:26:49;7.60;99.90
51615;DHT22;37695;52.960;6.188;2022-11-15T00:29:15;7.60;99.90
51615;DHT22;37695;52.960;6.188;2022-11-15T00:31:40;7.70;99.90
51615;DHT22;37695;52.960;6.188;2022-11-15T00:34:06;7.70;99.90
51615;DHT22;37695;52.960;6.188;2022-11-15T00:36:33;7.70;99.90
51615;DHT22;37695;52.960;6.188;2022-11-15T00:38:59;7.70;99.90
51615;DHT22;37695;52.960;6.188;2022-11-15T00:41:25;7.70;99.90
51615;DHT22;37695;52.960;6.188;2022-11-15T00:43:51;7.80;99.90
51615;DHT22;37695;52.960;6.188;2022-11-15T00:46:16;7.70;99.90
51615;DHT22;37695;52.960;6.188;2022-11-15T00:48:42;7.70;99.90
51615;DHT22;37695;52.960;6.188;2022-11-15T00:51:07;7.70;99.90
51615;DHT22;37695;52.960;6.188;2022-11-15T00:53:33;7.70;99.90
51615;DHT22;37695;52.960;6.188;2022-11-15T00:55:58;7.70;99.90
51615;DHT22;37695;52.960;6.188;2022-11-15T00:58:24;7.70;99.90
51615;DHT22;37695;52.960;6.188;2022-11-15T01:00:49;7.70;99.90
51615;DHT22;37695;52.960;6.188;2022-11-15T01:03:15;7.70;99.90
51615;DHT22;37695;52.960;6.188;2022-11-15T01:05:40;7.70;99.90
51615;DHT22;37695;52.960;6.188;2022-11-15T01:08:06;7.70;99.90
51615;DHT22;37695;52.960;6.188;2022-11-15T01:10:32;7.60;99.90
51615;DHT22;37695;52.960;6.188;2022-11-15T01:12:57;7.60;99.90
51615;DHT22;37695;52.960;6.188;2022-11-15T01:15:23;7.60;99.90
51615;DHT22;37695;52.960;6.188;2022-11-15T01:17:48;7.60;99.90
51615;DHT22;37695;52.960;6.188;2022-11-15T01:20:14;7.60;99.90
51615;DHT22;37695;52.960;6.188;2022-11-15T01:22:39;7.60;99.90
51615;DHT22;37695;52.960;6.188;2022-11-15T01:25:05;7.70;99.90
51615;DHT22;37695;52.960;6.188;2022-11-15T01:27:30;7.60;99.90
51615;DHT22;37695;52.960;6.188;2022-11-15T01:29:56;7.60;99.90
51615;DHT22;37695;52.960;6.188;2022-11-15T01:32:21;7.60;99.90
51615;DHT22;37695;52.960;6.188;2022-11-15T01:34:47;7.60;99.90
51615;DHT22;37695;52.960;6.188;2022-11-15T01:37:12;7.60;99.90
51615;DHT22;37695;52.960;6.188;2022-11-15T01:39:38;7.60;99.90
51615;DHT22;37695;52.960;6.188;2022-11-15T01:42:03;7.60;99.90
51615;DHT22;37695;52.960;6.188;2022-11-15T01:44:44;7.60;99.90
51615;DHT22;37695;52.960;6.188;2022-11-15T01:47:16;7.60;99.90
51615;DHT22;37695;52.960;6.188;2022-11-15T01:50:48;7.60;99.90
51615;DHT22;37695;52.960;6.188;2022-11-15T01:52:42;7.60;99.90
51615;DHT22;37695;52.960;6.188;2022-11-15T01:55:14;7.50;99.90
51615;DHT22;37695;52.960;6.188;2022-11-15T01:57:41;7.40;99.90
51615;DHT22;37695;52.960;6.188;2022-11-15T02:00:08;7.50;99.90
51615;DHT22;37695;52.960;6.188;2022-11-15T02:02:36;7.50;99.90
51615;DHT22;37695;52.960;6.188;2022-11-15T02:05:02;7.50;99.90
51615;DHT22;37695;52.960;6.188;2022-11-15T02:07:28;7.50;99.90
51615;DHT22;37695;52.960;6.188;2022-11-15T02:09:55;7.50;99.90
51615;DHT22;37695;52.960;6.188;2022-11-15T02:12:23;7.50;99.90
51615;DHT22;37695;52.960;6.188;2022-11-15T02:14:52;7.50;99.90
51615;DHT22;37695;52.960;6.188;2022-11-15T02:17:33;7.40;99.90
51615;DHT22;37695;52.960;6.188;2022-11-15T02:29:05;7.50;99.90
51615;DHT22;37695;52.960;6.188;2022-11-15T02:42:35;7.40;99.90
51615;DHT22;37695;52.960;6.188;2022-11-15T02:45:28;7.50;99.90
51615;DHT22;37695;52.960;6.188;2022-11-15T02:47:57;7.50;99.90
51615;DHT22;37695;52.960;6.188;2022-11-15T02:50:27;7.50;99.90
51615;DHT22;37695;52.960;6.188;2022-11-15T02:52:53;7.60;99.90
51615;DHT22;37695;52.960;6.188;2022-11-15T03:00:31;7.70;99.90
51615;DHT22;37695;52.960;6.188;2022-11-15T03:06:15;7.70;99.90
51615;DHT22;37695;52.960;6.188;2022-11-15T03:09:04;7.70;99.90
51615;DHT22;37695;52.960;6.188;2022-11-15T03:11:35;7.80;99.90
51615;DHT22;37695;52.960;6.188;2022-11-15T03:17:01;7.80;99.90
51615;DHT22;37695;52.960;6.188;2022-11-15T03:20:01;7.80;99.90
51615;DHT22;37695;52.960;6.188;2022-11-15T03:22:30;7.90;99.90
51615;DHT22;37695;52.960;6.188;2022-11-15T03:25:02;7.80;99.90
51615;DHT22;37695;52.960;6.188;2022-11-15T03:27:37;7.80;99.90
51615;DHT22;37695;52.960;6.188;2022-11-15T03:30:06;7.90;99.90
51615;DHT22;37695;52.960;6.188;2022-11-15T03:32:35;7.90;99.90
51615;DHT22;37695;52.960;6.188;2022-11-15T03:35:11;7.90;99.90
51615;DHT22;37695;52.960;6.188;2022-11-15T03:38:08;8.00;99.90
51615;DHT22;37695;52.960;6.188;2022-11-15T03:40:49;8.00;99.90
51615;DHT22;37695;52.960;6.188;2022-11-15T03:43:24;8.10;99.90
51615;DHT22;37695;52.960;6.188;2022-11-15T03:45:58;8.10;99.90
51615;DHT22;37695;52.960;6.188;2022-11-15T03:48:30;8.10;99.90
51615;DHT22;37695;52.960;6.188;2022-11-15T03:50:59;8.10;99.90
51615;DHT22;37695;52.960;6.188;2022-11-15T03:53:25;8.10;99.90
51615;DHT22;37695;52.960;6.188;2022-11-15T03:55:50;8.10;99.90
51615;DHT22;37695;52.960;6.188;2022-11-15T03:58:16;8.10;99.90
51615;DHT22;37695;52.960;6.188;2022-11-15T04:00:41;8.10;99.90
51615;DHT22;37695;52.960;6.188;2022-11-15T04:03:07;8.10;99.90
51615;DHT22;37695;52.960;6.188;2022-11-15T04:05:33;8.10;99.90
51615;DHT22;37695;52.960;6.188;2022-11-15T04:07:59;8.20;99.90
51615;DHT22;37695;52.960;6.188;2022-11-15T04:10:24;8.10;99.90
51615;DHT22;37695;52.960;6.188;2022-11-15T04:12:50;8.10;99.90
51615;DHT22;37695;52.960;6.188;2022-11-15T04:15:18;8.20;99.90
51615;DHT22;37695;52.960;6.188;2022-11-15T04:17:46;8.20;99.90
51615;DHT22;37695;52.960;6.188;2022-11-15T04:20:17;8.20;99.90
51615;DHT22;37695;52.960;6.188;2022-11-15T04:23:04;8.20;99.90
51615;DHT22;37695;52.960;6.188;2022-11-15T04:25:54;8.30;99.90
51615;DHT22;37695;52.960;6.188;2022-11-15T04:28:20;8.30;99.90
51615;DHT22;37695;52.960;6.188;2022-11-15T04:30:46;8.30;99.90
51615;DHT22;37695;52.960;6.188;2022-11-15T04:33:12;8.30;99.90
51615;DHT22;37695;52.960;6.188;2022-11-15T04:35:37;8.40;99.90
51615;DHT22;37695;52.960;6.188;2022-11-15T04:38:04;8.40;99.90
51615;DHT22;37695;52.960;6.188;2022-11-15T04:40:30;8.40;99.90
51615;DHT22;37695;52.960;6.188;2022-11-15T04:42:56;8.50;99.90
51615;DHT22;37695;52.960;6.188;2022-11-15T04:45:21;8.50;99.90
51615;DHT22;37695;52.960;6.188;2022-11-15T04:47:47;8.50;99.90
51615;DHT22;37695;52.960;6.188;2022-11-15T04:50:14;8.50;99.90
51615;DHT22;37695;52.960;6.188;2022-11-15T04:52:57;8.60;99.90
51615;DHT22;37695;52.960;6.188;2022-11-15T04:55:23;8.60;99.90
51615;DHT22;37695;52.960;6.188;2022-11-15T04:57:57;8.60;99.90
51615;DHT22;37695;52.960;6.188;2022-11-15T05:00:23;8.70;99.90
51615;DHT22;37695;52.960;6.188;2022-11-15T05:02:49;8.70;99.90
51615;DHT22;37695;52.960;6.188;2022-11-15T05:05:33;8.70;99.90
51615;DHT22;37695;52.960;6.188;2022-11-15T05:07:59;8.80;99.90
51615;DHT22;37695;52.960;6.188;2022-11-15T05:10:24;8.80;99.90
51615;DHT22;37695;52.960;6.188;2022-11-15T05:12:50;8.80;99.90
51615;DHT22;37695;52.960;6.188;2022-11-15T05:15:16;8.80;99.90
51615;DHT22;37695;52.960;6.188;2022-11-15T05:17:41;8.90;99.90
51615;DHT22;37695;52.960;6.188;2022-11-15T05:20:07;8.90;99.90
51615;DHT22;37695;52.960;6.188;2022-11-15T05:22:33;8.90;99.90
51615;DHT22;37695;52.960;6.188;2022-11-15T05:24:58;9.00;99.90
51615;DHT22;37695;52.960;6.188;2022-11-15T05:27:24;9.00;99.90
51615;DHT22;37695;52.960;6.188;2022-11-15T05:29:49;9.00;99.90
51615;DHT22;37695;52.960;6.188;2022-11-15T05:32:16;9.00;99.90
51615;DHT22;37695;52.960;6.188;2022-11-15T05:34:42;9.10;99.90
51615;DHT22;37695;52.960;6.188;2022-11-15T05:37:07;9.10;99.90
51615;DHT22;37695;52.960;6.188;2022-11-15T05:39:33;9.20;99.90
51615;DHT22;37695;52.960;6.188;2022-11-15T05:42:09;9.20;99.90
51615;DHT22;37695;52.960;6.188;2022-11-15T05:44:36;9.20;99.90
51615;DHT22;37695;52.960;6.188;2022-11-15T05:47:04;9.30;99.90
51615;DHT22;37695;52.960;6.188;2022-11-15T05:49:34;9.30;99.90
51615;DHT22;37695;52.960;6.188;2022-11-15T05:52:03;9.40;99.90
51615;DHT22;37695;52.960;6.188;2022-11-15T05:54:31;9.40;99.90
51615;DHT22;37695;52.960;6.188;2022-11-15T05:56:57;9.50;99.90
51615;DHT22;37695;52.960;6.188;2022-11-15T05:59:23;9.50;99.90
51615;DHT22;37695;52.960;6.188;2022-11-15T06:01:49;9.50;99.90
51615;DHT22;37695;52.960;6.188;2022-11-15T06:04:14;9.60;99.90
51615;DHT22;37695;52.960;6.188;2022-11-15T06:06:40;9.60;99.90
51615;DHT22;37695;52.960;6.188;2022-11-15T06:09:05;9.60;99.90
51615;DHT22;37695;52.960;6.188;2022-11-15T06:11:31;9.70;99.90
51615;DHT22;37695;52.960;6.188;2022-11-15T06:13:56;9.60;99.90
51615;DHT22;37695;52.960;6.188;2022-11-15T06:16:22;9.60;99.90
51615;DHT22;37695;52.960;6.188;2022-11-15T06:18:47;9.70;99.90
51615;DHT22;37695;52.960;6.188;2022-11-15T06:21:13;9.70;99.90
51615;DHT22;37695;52.960;6.188;2022-11-15T06:23:38;9.70;99.90
51615;DHT22;37695;52.960;6.188;2022-11-15T06:26:04;9.80;99.90
51615;DHT22;37695;52.960;6.188;2022-11-15T06:28:30;9.80;99.90
51615;DHT22;37695;52.960;6.188;2022-11-15T06:31:01;9.80;99.90
51615;DHT22;37695;52.960;6.188;2022-11-15T06:33:27;9.80;99.90
51615;DHT22;37695;52.960;6.188;2022-11-15T06:35:53;9.80;99.90
51615;DHT22;37695;52.960;6.188;2022-11-15T06:38:18;9.90;99.90
51615;DHT22;37695;52.960;6.188;2022-11-15T06:40:44;9.90;99.90
51615;DHT22;37695;52.960;6.188;2022-11-15T06:43:09;9.90;99.90
51615;DHT22;37695;52.960;6.188;2022-11-15T06:45:35;9.90;99.90
51615;DHT22;37695;52.960;6.188;2022-11-15T06:48:01;9.90;99.90
51615;DHT22;37695;52.960;6.188;2022-11-15T06:50:26;9.90;99.90
51615;DHT22;37695;52.960;6.188;2022-11-15T06:52:52;10.00;99.90
51615;DHT22;37695;52.960;6.188;2022-11-15T06:55:17;10.00;99.90
51615;DHT22;37695;52.960;6.188;2022-11-15T06:57:50;10.00;99.90
51615;DHT22;37695;52.960;6.188;2022-11-15T07:00:18;10.10;99.90
51615;DHT22;37695;52.960;6.188;2022-11-15T07:02:44;10.10;99.90
51615;DHT22;37695;52.960;6.188;2022-11-15T07:05:11;10.10;99.90
51615;DHT22;37695;52.960;6.188;2022-11-15T07:07:36;10.10;99.90
51615;DHT22;37695;52.960;6.188;2022-11-15T07:10:02;10.10;99.90
51615;DHT22;37695;52.960;6.188;2022-11-15T07:12:27;10.10;99.90
51615;DHT22;37695;52.960;6.188;2022-11-15T07:14:53;10.10;99.90
51615;DHT22;37695;52.960;6.188;2022-11-15T07:17:18;10.20;99.90
51615;DHT22;37695;52.960;6.188;2022-11-15T07:19:44;10.20;99.90
51615;DHT22;37695;52.960;6.188;2022-11-15T07:22:09;10.20;99.90
51615;DHT22;37695;52.960;6.188;2022-11-15T07:24:35;10.20;99.90
51615;DHT22;37695;52.960;6.188;2022-11-15T07:27:00;10.20;99.90
51615;DHT22;37695;52.960;6.188;2022-11-15T07:29:26;10.20;99.90
51615;DHT22;37695;52.960;6.188;2022-11-15T07:31:51;10.20;99.90
51615;DHT22;37695;52.960;6.188;2022-11-15T07:34:17;10.20;99.90
51615;DHT22;37695;52.960;6.188;2022-11-15T07:36:43;10.20;99.90
51615;DHT22;37695;52.960;6.188;2022-11-15T07:39:08;10.30;99.90
51615;DHT22;37695;52.960;6.188;2022-11-15T07:41:34;10.30;99.90
51615;DHT22;37695;52.960;6.188;2022-11-15T07:44:00;10.30;99.90
51615;DHT22;37695;52.960;6.188;2022-11-15T07:46:26;10.40;99.90
51615;DHT22;37695;52.960;6.188;2022-11-15T07:48:52;10.40;99.90
51615;DHT22;37695;52.960;6.188;2022-11-15T07:51:17;10.40;99.90
51615;DHT22;37695;52.960;6.188;2022-11-15T07:53:44;10.40;99.90
51615;DHT22;37695;52.960;6.188;2022-11-15T07:56:10;10.40;99.90
51615;DHT22;37695;52.960;6.188;2022-11-15T07:58:36;10.40;99.90
51615;DHT22;37695;52.960;6.188;2022-11-15T08:01:09;10.50;99.90
51615;DHT22;37695;52.960;6.188;2022-11-15T08:03:35;10.50;99.90
51615;DHT22;37695;52.960;6.188;2022-11-15T08:06:01;10.60;99.90
51615;DHT22;37695;52.960;6.188;2022-11-15T08:08:27;10.60;99.90
51615;DHT22;37695;52.960;6.188;2022-11-15T08:10:53;10.60;99.90
51615;DHT22;37695;52.960;6.188;2022-11-15T08:13:19;10.60;99.90
51615;DHT22;37695;52.960;6.188;2022-11-15T08:15:44;10.60;99.90
51615;DHT22;37695;52.960;6.188;2022-11-15T08:18:13;10.60;99.90
51615;DHT22;37695;52.960;6.188;2022-11-15T08:20:40;10.70;99.90
51615;DHT22;37695;52.960;6.188;2022-11-15T08:23:06;10.80;99.90
51615;DHT22;37695;52.960;6.188;2022-11-15T08:25:33;10.80;99.90
51615;DHT22;37695;52.960;6.188;2022-11-15T08:28:02;10.80;99.90
51615;DHT22;37695;52.960;6.188;2022-11-15T08:30:28;10.80;99.90
51615;DHT22;37695;52.960;6.188;2022-11-15T08:32:56;10.80;99.90
51615;DHT22;37695;52.960;6.188;2022-11-15T08:35:23;10.90;99.90
51615;DHT22;37695;52.960;6.188;2022-11-15T08:37:49;10.90;99.90
51615;DHT22;37695;52.960;6.188;2022-11-15T08:40:15;10.90;99.90
51615;DHT22;37695;52.960;6.188;2022-11-15T08:42:41;11.00;99.90
51615;DHT22;37695;52.960;6.188;2022-11-15T08:45:07;11.00;99.90
51615;DHT22;37695;52.960;6.188;2022-11-15T08:47:33;11.00;99.90
51615;DHT22;37695;52.960;6.188;2022-11-15T08:49:59;11.10;99.90
51615;DHT22;37695;52.960;6.188;2022-11-15T08:52:25;11.20;99.90
51615;DHT22;37695;52.960;6.188;2022-11-15T08:54:50;11.10;99.90
51615;DHT22;37695;52.960;6.188;2022-11-15T08:57:16;11.10;99.90
51615;DHT22;37695;52.960;6.188;2022-11-15T08:59:42;11.10;99.90
51615;DHT22;37695;52.960;6.188;2022-11-15T09:02:12;11.20;99.90
51615;DHT22;37695;52.960;6.188;2022-11-15T09:04:42;11.20;99.90
51615;DHT22;37695;52.960;6.188;2022-11-15T09:07:09;11.30;99.90
51615;DHT22;37695;52.960;6.188;2022-11-15T09:09:36;11.30;99.90
51615;DHT22;37695;52.960;6.188;2022-11-15T09:12:01;11.30;99.90
51615;DHT22;37695;52.960;6.188;2022-11-15T09:14:27;11.30;99.90
51615;DHT22;37695;52.960;6.188;2022-11-15T09:16:52;11.40;99.90
51615;DHT22;37695;52.960;6.188;2022-11-15T09:19:18;11.40;99.90
51615;DHT22;37695;52.960;6.188;2022-11-15T09:21:43;11.40;99.90
51615;DHT22;37695;52.960;6.188;2022-11-15T09:24:09;11.40;99.90
51615;DHT22;37695;52.960;6.188;2022-11-15T09:26:34;11.50;99.90
51615;DHT22;37695;52.960;6.188;2022-11-15T09:29:00;11.50;99.90
51615;DHT22;37695;52.960;6.188;2022-11-15T09:31:27;11.50;99.90
51615;DHT22;37695;52.960;6.188;2022-11-15T09:33:52;11.50;99.90
51615;DHT22;37695;52.960;6.188;2022-11-15T09:36:18;11.50;99.90
51615;DHT22;37695;52.960;6.188;2022-11-15T09:38:43;11.60;99.90
51615;DHT22;37695;52.960;6.188;2022-11-15T09:46:42;11.70;99.90
51615;DHT22;37695;52.960;6.188;2022-11-15T09:49:14;11.70;99.90
51615;DHT22;37695;52.960;6.188;2022-11-15T09:51:43;11.70;99.90
51615;DHT22;37695;52.960;6.188;2022-11-15T09:56:44;11.70;99.90
51615;DHT22;37695;52.960;6.188;2022-11-15T10:04:44;11.80;99.90
51615;DHT22;37695;52.960;6.188;2022-11-15T10:07:27;11.80;99.90
51615;DHT22;37695;52.960;6.188;2022-11-15T10:09:59;11.90;99.90
51615;DHT22;37695;52.960;6.188;2022-11-15T10:12:27;11.90;99.90
51615;DHT22;37695;52.960;6.188;2022-11-15T10:15:02;12.00;99.90
51615;DHT22;37695;52.960;6.188;2022-11-15T10:20:27;12.00;99.90
51615;DHT22;37695;52.960;6.188;2022-11-15T10:22:56;12.00;99.90
51615;DHT22;37695;52.960;6.188;2022-11-15T10:25:28;12.00;99.90
51615;DHT22;37695;52.960;6.188;2022-11-15T10:27:59;12.00;99.90
51615;DHT22;37695;52.960;6.188;2022-11-15T10:30:35;12.00;99.90
51615;DHT22;37695;52.960;6.188;2022-11-15T10:35:44;12.00;99.90
51615;DHT22;37695;52.960;6.188;2022-11-15T10:38:11;12.00;99.90
51615;DHT22;37695;52.960;6.188;2022-11-15T10:40:38;12.00;99.90
51615;DHT22;37695;52.960;6.188;2022-11-15T10:45:34;12.10;99.90
51615;DHT22;37695;52.960;6.188;2022-11-15T10:48:23;12.20;99.90
51615;DHT22;37695;52.960;6.188;2022-11-15T10:50:51;12.20;99.90
51615;DHT22;37695;52.960;6.188;2022-11-15T10:53:38;12.20;99.90
51615;DHT22;37695;52.960;6.188;2022-11-15T10:56:11;12.30;99.90
51615;DHT22;37695;52.960;6.188;2022-11-15T10:58:42;12.40;99.90
51615;DHT22;37695;52.960;6.188;2022-11-15T11:01:17;12.30;99.90
51615;DHT22;37695;52.960;6.188;2022-11-15T11:03:45;12.20;99.90
51615;DHT22;37695;52.960;6.188;2022-11-15T11:06:22;12.30;99.90
51615;DHT22;37695;52.960;6.188;2022-11-15T11:11:25;12.30;99.90
51615;DHT22;37695;52.960;6.188;2022-11-15T11:13:50;12.30;99.90
51615;DHT22;37695;52.960;6.188;2022-11-15T11:24:41;12.40;99.90
51615;DHT22;37695;52.960;6.188;2022-11-15T11:27:12;12.40;99.90
51615;DHT22;37695;52.960;6.188;2022-11-15T11:29:51;12.40;99.90
51615;DHT22;37695;52.960;6.188;2022-11-15T11:35:13;12.30;99.90
51615;DHT22;37695;52.960;6.188;2022-11-15T11:37:42;12.30;99.90
51615;DHT22;37695;52.960;6.188;2022-11-15T11:45:54;12.40;99.90
51615;DHT22;37695;52.960;6.188;2022-11-15T11:51:17;12.40;99.90
51615;DHT22;37695;52.960;6.188;2022-11-15T11:54:09;12.30;99.90
51615;DHT22;37695;52.960;6.188;2022-11-15T11:56:39;12.30;99.90
51615;DHT22;37695;52.960;6.188;2022-11-15T11:59:24;12.20;99.90
51615;DHT22;37695;52.960;6.188;2022-11-15T12:01:51;12.20;99.90
51615;DHT22;37695;52.960;6.188;2022-11-15T12:04:29;12.20;99.90
51615;DHT22;37695;52.960;6.188;2022-11-15T12:07:02;12.40;99.90
51615;DHT22;37695;52.960;6.188;2022-11-15T12:09:33;12.50;99.90
51615;DHT22;37695;52.960;6.188;2022-11-15T12:12:27;12.60;99.90
51615;DHT22;37695;52.960;6.188;2022-11-15T12:15:00;12.70;99.90
51615;DHT22;37695;52.960;6.188;2022-11-15T12:17:28;12.80;99.90
51615;DHT22;37695;52.960;6.188;2022-11-15T12:20:19;12.90;99.90
51615;DHT22;37695;52.960;6.188;2022-11-15T12:23:25;12.90;99.90
51615;DHT22;37695;52.960;6.188;2022-11-15T12:26:05;13.00;99.90
51615;DHT22;37695;52.960;6.188;2022-11-15T12:28:59;13.00;99.90
51615;DHT22;37695;52.960;6.188;2022-11-15T12:34:15;13.20;99.90
51615;DHT22;37695;52.960;6.188;2022-11-15T12:36:53;13.20;99.90
51615;DHT22;37695;52.960;6.188;2022-11-15T12:39:20;13.10;99.90
51615;DHT22;37695;52.960;6.188;2022-11-15T13:02:30;12.90;99.90
51615;DHT22;37695;52.960;6.188;2022-11-15T13:17:43;12.70;99.90
51615;DHT22;37695;52.960;6.188;2022-11-15T13:28:03;12.40;99.90
51615;DHT22;37695;52.960;6.188;2022-11-15T13:30:35;12.50;99.90
51615;DHT22;37695;52.960;6.188;2022-11-15T13:33:08;12.50;99.90
51615;DHT22;37695;52.960;6.188;2022-11-15T13:35:39;12.50;99.90
51615;DHT22;37695;52.960;6.188;2022-11-15T13:38:05;12.50;99.90
51615;DHT22;37695;52.960;6.188;2022-11-15T13:40:37;12.50;99.90
51615;DHT22;37695;52.960;6.188;2022-11-15T13:48:58;12.50;99.90
51615;DHT22;37695;52.960;6.188;2022-11-15T13:51:45;12.50;99.90
51615;DHT22;37695;52.960;6.188;2022-11-15T13:54:34;12.50;99.90
51615;DHT22;37695;52.960;6.188;2022-11-15T13:59:37;12.40;99.90
51615;DHT22;37695;52.960;6.188;2022-11-15T14:02:14;12.30;99.90
51615;DHT22;37695;52.960;6.188;2022-11-15T14:05:17;12.20;99.90
51615;DHT22;37695;52.960;6.188;2022-11-15T14:07:54;12.20;99.90
51615;DHT22;37695;52.960;6.188;2022-11-15T14:10:35;12.10;99.90
51615;DHT22;37695;52.960;6.188;2022-11-15T14:13:02;12.10;99.90
51615;DHT22;37695;52.960;6.188;2022-11-15T14:15:31;12.00;99.90
51615;DHT22;37695;52.960;6.188;2022-11-15T14:17:57;12.00;99.90
51615;DHT22;37695;52.960;6.188;2022-11-15T14:20:35;11.90;99.90
51615;DHT22;37695;52.960;6.188;2022-11-15T14:23:05;11.90;99.90
51615;DHT22;37695;52.960;6.188;2022-11-15T14:25:55;11.80;99.90
51615;DHT22;37695;52.960;6.188;2022-11-15T14:30:51;11.70;99.90
51615;DHT22;37695;52.960;6.188;2022-11-15T14:35:55;11.60;99.90
51615;DHT22;37695;52.960;6.188;2022-11-15T14:38:23;11.50;99.90
51615;DHT22;37695;52.960;6.188;2022-11-15T14:40:48;11.50;99.90
51615;DHT22;37695;52.960;6.188;2022-11-15T14:43:14;11.50;99.90
51615;DHT22;37695;52.960;6.188;2022-11-15T14:45:40;11.50;99.90
51615;DHT22;37695;52.960;6.188;2022-11-15T14:48:06;11.50;99.90
51615;DHT22;37695;52.960;6.188;2022-11-15T14:50:33;11.50;99.90
51615;DHT22;37695;52.960;6.188;2022-11-15T14:52:59;11.40;99.90
51615;DHT22;37695;52.960;6.188;2022-11-15T14:57:53;11.40;99.90
51615;DHT22;37695;52.960;6.188;2022-11-15T15:00:18;11.40;99.90
51615;DHT22;37695;52.960;6.188;2022-11-15T15:02:45;11.40;99.90
51615;DHT22;37695;52.960;6.188;2022-11-15T15:05:21;11.30;99.90
51615;DHT22;37695;52.960;6.188;2022-11-15T15:07:49;11.30;99.90
51615;DHT22;37695;52.960;6.188;2022-11-15T15:10:16;11.30;99.90
51615;DHT22;37695;52.960;6.188;2022-11-15T15:12:42;11.30;99.90
51615;DHT22;37695;52.960;6.188;2022-11-15T15:15:13;11.30;99.90
51615;DHT22;37695;52.960;6.188;2022-11-15T15:17:40;11.30;99.90
51615;DHT22;37695;52.960;6.188;2022-11-15T15:20:06;11.30;99.90
51615;DHT22;37695;52.960;6.188;2022-11-15T15:22:32;11.30;99.90
51615;DHT22;37695;52.960;6.188;2022-11-15T15:24:57;11.30;99.90
51615;DHT22;37695;52.960;6.188;2022-11-15T15:27:23;11.20;99.90
51615;DHT22;37695;52.960;6.188;2022-11-15T15:29:48;11.20;99.90
51615;DHT22;37695;52.960;6.188;2022-11-15T15:32:14;11.10;99.90
51615;DHT22;37695;52.960;6.188;2022-11-15T15:34:39;11.10;99.90
51615;DHT22;37695;52.960;6.188;2022-11-15T15:39:48;11.00;99.90
51615;DHT22;37695;52.960;6.188;2022-11-15T15:42:14;10.90;99.90
51615;DHT22;37695;52.960;6.188;2022-11-15T15:44:40;10.90;99.90
51615;DHT22;37695;52.960;6.188;2022-11-15T15:47:14;10.90;99.90
51615;DHT22;37695;52.960;6.188;2022-11-15T15:49:41;10.80;99.90
51615;DHT22;37695;52.960;6.188;2022-11-15T15:52:07;10.80;99.90
51615;DHT22;37695;52.960;6.188;2022-11-15T15:54:32;10.70;99.90
51615;DHT22;37695;52.960;6.188;2022-11-15T15:56:58;10.70;99.90
51615;DHT22;37695;52.960;6.188;2022-11-15T15:59:23;10.70;99.90
51615;DHT22;37695;52.960;6.188;2022-11-15T16:01:49;10.70;99.90
51615;DHT22;37695;52.960;6.188;2022-11-15T16:04:14;10.70;99.90
51615;DHT22;37695;52.960;6.188;2022-11-15T16:06:40;10.60;99.90
51615;DHT22;37695;52.960;6.188;2022-11-15T16:09:15;10.60;99.90
51615;DHT22;37695;52.960;6.188;2022-11-15T16:11:43;10.60;99.90
51615;DHT22;37695;52.960;6.188;2022-11-15T16:14:09;10.60;99.90
51615;DHT22;37695;52.960;6.188;2022-11-15T16:16:35;10.70;99.90
51615;DHT22;37695;52.960;6.188;2022-11-15T16:19:01;10.70;99.90
51615;DHT22;37695;52.960;6.188;2022-11-15T16:21:27;10.80;99.90
51615;DHT22;37695;52.960;6.188;2022-11-15T16:23:53;10.80;99.90
51615;DHT22;37695;52.960;6.188;2022-11-15T16:26:21;10.90;99.90
51615;DHT22;37695;52.960;6.188;2022-11-15T16:28:47;10.90;99.90
51615;DHT22;37695;52.960;6.188;2022-11-15T16:31:13;10.90;99.90
51615;DHT22;37695;52.960;6.188;2022-11-15T16:33:39;11.00;99.90
51615;DHT22;37695;52.960;6.188;2022-11-15T16:36:21;11.00;99.90
51615;DHT22;37695;52.960;6.188;2022-11-15T16:38:47;11.00;99.90
51615;DHT22;37695;52.960;6.188;2022-11-15T16:41:13;11.10;99.90
51615;DHT22;37695;52.960;6.188;2022-11-15T16:43:39;11.10;99.90
51615;DHT22;37695;52.960;6.188;2022-11-15T16:46:20;11.10;99.90
51615;DHT22;37695;52.960;6.188;2022-11-15T16:48:46;11.10;99.90
51615;DHT22;37695;52.960;6.188;2022-11-15T16:51:13;11.10;99.90
51615;DHT22;37695;52.960;6.188;2022-11-15T16:53:38;11.10;99.90
51615;DHT22;37695;52.960;6.188;2022-11-15T16:56:15;11.10;99.90
51615;DHT22;37695;52.960;6.188;2022-11-15T16:58:42;11.10;99.90
51615;DHT22;37695;52.960;6.188;2022-11-15T17:01:16;11.20;99.90
51615;DHT22;37695;52.960;6.188;2022-11-15T17:03:43;11.20;99.90
51615;DHT22;37695;52.960;6.188;2022-11-15T17:06:10;11.20;99.90
51615;DHT22;37695;52.960;6.188;2022-11-15T17:08:37;11.20;99.90
51615;DHT22;37695;52.960;6.188;2022-11-15T17:11:06;11.20;99.90
51615;DHT22;37695;52.960;6.188;2022-11-15T17:13:32;11.20;99.90
51615;DHT22;37695;52.960;6.188;2022-11-15T17:16:08;11.30;99.90
51615;DHT22;37695;52.960;6.188;2022-11-15T17:18:35;11.30;99.90
51615;DHT22;37695;52.960;6.188;2022-11-15T17:21:12;11.30;99.90
51615;DHT22;37695;52.960;6.188;2022-11-15T17:23:38;11.30;99.90
51615;DHT22;37695;52.960;6.188;2022-11-15T17:26:04;11.40;99.90
51615;DHT22;37695;52.960;6.188;2022-11-15T17:28:31;11.40;99.90
51615;DHT22;37695;52.960;6.188;2022-11-15T17:30:57;11.40;99.90
51615;DHT22;37695;52.960;6.188;2022-11-15T17:33:23;11.40;99.90
51615;DHT22;37695;52.960;6.188;2022-11-15T17:35:59;11.40;99.90
51615;DHT22;37695;52.960;6.188;2022-11-15T17:38:25;11.40;99.90
51615;DHT22;37695;52.960;6.188;2022-11-15T17:41:11;11.40;99.90
51615;DHT22;37695;52.960;6.188;2022-11-15T17:43:37;11.30;99.90
51615;DHT22;37695;52.960;6.188;2022-11-15T17:46:07;11.40;99.90
51615;DHT22;37695;52.960;6.188;2022-11-15T17:48:33;11.40;99.90
51615;DHT22;37695;52.960;6.188;2022-11-15T17:51:01;11.40;99.90
51615;DHT22;37695;52.960;6.188;2022-11-15T17:53:31;11.40;99.90
51615;DHT22;37695;52.960;6.188;2022-11-15T17:56:03;11.40;99.90
51615;DHT22;37695;52.960;6.188;2022-11-15T17:58:30;11.40;99.90
51615;DHT22;37695;52.960;6.188;2022-11-15T18:01:04;11.50;99.90
51615;DHT22;37695;52.960;6.188;2022-11-15T18:03:32;11.40;99.90
51615;DHT22;37695;52.960;6.188;2022-11-15T18:05:58;11.40;99.90